San Antonio, Texas
Traffic Map
Current Weather Conditions
San Antonio, Texas
Scattered Clouds
Scattered Clouds
95°
Feels Like: 99°
Wind Chill: 95° Ceiling: Unl
Heat Index: 99° Visibility: 10mi
Dew Point: 67° Wind: 14mph
Humidity: 40% Direction: 170° (S)
Pressure: 29.97in Gusts: 0mph
Raw Report DataKSAT 172051Z 17012KT 10SM FEW055 SCT250 35/19 A2997 RMK AO2 SLP127 T03500194 58029
Traffic Incident Summary
Active as of:
Severity:
Category:
InformationThere was an issue retrieving the traffic information for this location. Please try a different location or try again shortly.
Advertisements